createdAt,value
2022-11-15T00:01:01.470Z,13.63
2022-11-15T00:03:28.966Z,13.73
2022-11-15T00:05:55.982Z,12.82
2022-11-15T00:08:22.722Z,14.35
2022-11-15T00:11:00.233Z,13.60
2022-11-15T00:13:27.932Z,13.90
2022-11-15T00:15:58.020Z,13.98
2022-11-15T00:18:24.766Z,13.25
2022-11-15T00:20:51.527Z,13.20
2022-11-15T00:23:18.245Z,11.90
2022-11-15T00:25:44.946Z,12.63
2022-11-15T00:28:11.710Z,13.02
2022-11-15T00:30:38.499Z,12.85
2022-11-15T00:33:06.611Z,12.45
2022-11-15T00:35:34.553Z,11.68
2022-11-15T00:38:17.735Z,12.27
2022-11-15T00:40:44.477Z,12.25
2022-11-15T00:43:11.340Z,11.75
2022-11-15T00:45:38.077Z,11.90
2022-11-15T00:48:05.232Z,12.15
2022-11-15T00:50:31.921Z,11.95
2022-11-15T00:52:58.628Z,12.05
2022-11-15T00:55:25.456Z,11.75
2022-11-15T00:57:52.192Z,11.32
2022-11-15T01:00:19.097Z,11.68
2022-11-15T01:02:45.838Z,11.77
2022-11-15T01:05:12.693Z,12.30
2022-11-15T01:07:39.482Z,11.52
2022-11-15T01:10:07.152Z,11.95
2022-11-15T01:12:34.023Z,11.90
2022-11-15T01:15:00.900Z,12.65
2022-11-15T01:17:27.864Z,12.05
2022-11-15T01:20:07.437Z,11.10
2022-11-15T01:22:34.161Z,11.43
2022-11-15T01:25:00.909Z,11.93
2022-11-15T01:27:27.597Z,10.73
2022-11-15T01:29:54.356Z,10.90
2022-11-15T01:32:21.130Z,11.27
2022-11-15T01:34:47.867Z,10.75
2022-11-15T01:37:14.587Z,11.70
2022-11-15T01:39:41.331Z,11.77
2022-11-15T01:42:14.350Z,11.30
2022-11-15T01:44:46.696Z,12.27
2022-11-15T01:47:26.800Z,12.25
2022-11-15T01:50:00.181Z,12.00
2022-11-15T01:52:31.141Z,11.98
2022-11-15T01:55:10.430Z,12.43
2022-11-15T01:57:38.414Z,12.23
2022-11-15T02:00:07.021Z,11.32
2022-11-15T02:02:35.440Z,11.27
2022-11-15T02:05:02.204Z,12.30
2022-11-15T02:07:30.636Z,12.55
2022-11-15T02:10:01.021Z,11.52
2022-11-15T02:12:27.764Z,12.45
2022-11-15T02:14:56.459Z,12.10
2022-11-15T02:18:05.894Z,12.02
2022-11-15T02:20:35.419Z,11.77
2022-11-15T02:23:23.918Z,12.13
2022-11-15T02:25:50.597Z,12.32
2022-11-15T02:28:35.759Z,12.05
2022-11-15T02:31:10.881Z,12.55
2022-11-15T02:34:00.663Z,12.48
2022-11-15T02:36:33.648Z,11.65
2022-11-15T02:39:09.234Z,12.38
2022-11-15T02:41:54.591Z,11.60
2022-11-15T02:44:46.306Z,11.30
2022-11-15T02:47:17.254Z,11.38
2022-11-15T02:49:55.669Z,11.63
2022-11-15T02:52:26.240Z,11.40
2022-11-15T02:55:01.328Z,11.40
2022-11-15T02:57:30.830Z,11.88
2022-11-15T03:00:11.783Z,10.98
2022-11-15T03:02:50.801Z,11.55
2022-11-15T03:05:25.970Z,11.32
2022-11-15T03:08:07.157Z,11.25
2022-11-15T03:10:48.057Z,10.82
2022-11-15T03:13:41.146Z,11.48
2022-11-15T03:16:20.117Z,10.75
2022-11-15T03:18:53.678Z,11.45
2022-11-15T03:21:21.443Z,12.10
2022-11-15T03:23:49.619Z,11.50
2022-11-15T03:26:19.586Z,11.27
2022-11-15T03:29:16.007Z,11.75
2022-11-15T03:31:50.454Z,11.15
2022-11-15T03:34:42.732Z,11.25
2022-11-15T03:37:15.374Z,11.57
2022-11-15T03:42:34.548Z,10.55
2022-11-15T03:45:25.363Z,10.98
2022-11-15T03:48:02.653Z,10.75
2022-11-15T03:50:30.459Z,11.23
2022-11-15T03:52:58.355Z,10.73
2022-11-15T03:55:25.210Z,10.27
2022-11-15T03:57:56.254Z,10.68
2022-11-15T04:00:26.061Z,10.82
2022-11-15T04:02:52.862Z,11.07
2022-11-15T04:05:19.624Z,10.88
2022-11-15T04:07:46.404Z,10.60
2022-11-15T04:10:13.956Z,11.15
2022-11-15T04:12:52.463Z,11.00
2022-11-15T04:15:23.587Z,10.45
2022-11-15T04:17:56.774Z,10.88
2022-11-15T04:21:05.460Z,11.50
2022-11-15T04:23:51.308Z,10.27
2022-11-15T04:26:21.931Z,10.38
2022-11-15T04:29:07.216Z,11.90
2022-11-15T04:31:36.153Z,11.10
2022-11-15T04:34:02.908Z,11.35
2022-11-15T04:36:48.039Z,11.60
2022-11-15T04:39:17.033Z,10.55
2022-11-15T04:41:45.502Z,11.88
2022-11-15T04:44:16.566Z,11.32
2022-11-15T04:46:43.297Z,11.73
2022-11-15T04:49:20.677Z,11.75
2022-11-15T04:51:50.273Z,10.75
2022-11-15T04:54:22.152Z,11.60
2022-11-15T04:59:29.556Z,11.00
2022-11-15T05:01:56.346Z,11.07
2022-11-15T05:04:26.074Z,10.63
2022-11-15T05:06:52.973Z,11.00
2022-11-15T05:09:22.803Z,11.20
2022-11-15T05:11:50.241Z,10.80
2022-11-15T05:14:17.457Z,11.18
2022-11-15T05:16:44.390Z,10.35
2022-11-15T05:19:11.378Z,11.40
2022-11-15T05:21:38.605Z,11.07
2022-11-15T05:24:25.409Z,11.23
2022-11-15T05:26:52.147Z,11.20
2022-11-15T05:29:18.858Z,10.90
2022-11-15T05:31:45.703Z,10.88
2022-11-15T05:34:12.628Z,12.77
2022-11-15T05:36:46.852Z,11.40
2022-11-15T05:39:54.295Z,12.07
2022-11-15T05:42:21.142Z,10.60
2022-11-15T05:44:50.447Z,10.95
2022-11-15T05:47:26.943Z,10.82
2022-11-15T05:49:55.309Z,11.27
2022-11-15T05:52:28.839Z,12.45
2022-11-15T05:54:57.878Z,16.13
2022-11-15T05:57:42.748Z,12.70
2022-11-15T06:00:16.185Z,11.43
2022-11-15T06:02:48.383Z,11.60
2022-11-15T06:05:15.173Z,11.10
2022-11-15T06:07:42.523Z,11.52
2022-11-15T06:10:16.269Z,11.43
2022-11-15T06:13:13.078Z,10.05
2022-11-15T06:16:17.777Z,10.85
2022-11-15T06:18:44.652Z,9.90
2022-11-15T06:21:11.406Z,9.95
2022-11-15T06:23:38.156Z,10.38
2022-11-15T06:26:08.011Z,9.35
2022-11-15T06:28:35.130Z,9.50
2022-11-15T06:31:10.311Z,10.02
2022-11-15T06:33:39.528Z,9.57
2022-11-15T06:36:14.684Z,10.00
2022-11-15T06:38:48.388Z,10.20
2022-11-15T06:41:16.467Z,9.75
2022-11-15T06:43:43.393Z,10.13
2022-11-15T06:46:10.368Z,9.77
2022-11-15T06:48:37.303Z,9.77
2022-11-15T06:51:05.390Z,10.13
2022-11-15T06:53:33.744Z,11.10
2022-11-15T06:56:06.164Z,10.35
2022-11-15T06:58:33.137Z,9.52
2022-11-15T07:01:02.094Z,10.60
2022-11-15T07:03:29.320Z,11.45
2022-11-15T07:06:01.392Z,14.30
2022-11-15T07:08:30.347Z,22.38
2022-11-15T07:11:05.292Z,26.58
2022-11-15T07:13:36.703Z,39.30
2022-11-15T07:16:09.331Z,45.05
2022-11-15T07:21:09.208Z,33.47
2022-11-15T07:23:40.256Z,33.53
2022-11-15T07:26:07.794Z,28.63
2022-11-15T07:28:35.162Z,16.63
2022-11-15T07:31:06.933Z,13.10
2022-11-15T07:33:34.156Z,11.25
2022-11-15T07:36:06.975Z,10.93
2022-11-15T07:41:09.219Z,10.82
2022-11-15T07:43:36.418Z,12.10
2022-11-15T07:46:10.705Z,10.70
2022-11-15T07:48:45.879Z,10.07
2022-11-15T07:51:17.576Z,9.32
2022-11-15T07:53:44.789Z,8.83
2022-11-15T07:56:12.743Z,9.02
2022-11-15T07:58:39.625Z,8.05
2022-11-15T08:01:07.610Z,8.30
2022-11-15T08:03:34.975Z,8.93
2022-11-15T08:06:02.293Z,9.80
2022-11-15T08:08:29.055Z,8.30
2022-11-15T08:10:58.134Z,8.52
2022-11-15T08:13:24.913Z,8.48
2022-11-15T08:15:57.412Z,8.85
2022-11-15T08:18:24.559Z,8.48
2022-11-15T08:20:51.428Z,9.05
2022-11-15T08:23:18.133Z,9.25
2022-11-15T08:25:44.914Z,10.52
2022-11-15T08:28:12.054Z,10.18
2022-11-15T08:30:42.953Z,9.98
2022-11-15T08:33:14.740Z,9.90
2022-11-15T08:35:43.490Z,8.43
2022-11-15T08:38:10.686Z,8.23
2022-11-15T08:40:38.368Z,7.85
2022-11-15T08:43:05.330Z,7.10
2022-11-15T08:45:34.379Z,7.65
2022-11-15T08:48:02.535Z,9.30
2022-11-15T08:50:29.436Z,7.78
2022-11-15T08:52:56.174Z,7.70
2022-11-15T08:55:24.726Z,7.85
2022-11-15T08:57:58.442Z,7.18
2022-11-15T09:00:31.524Z,6.75
2022-11-15T09:02:59.948Z,7.38
2022-11-15T09:05:29.388Z,6.32
2022-11-15T09:07:56.165Z,6.05
2022-11-15T09:14:15.703Z,6.40
2022-11-15T09:16:42.505Z,5.82
2022-11-15T09:19:11.837Z,5.60
2022-11-15T09:21:38.892Z,5.22
2022-11-15T09:24:06.006Z,6.05
2022-11-15T09:26:32.777Z,5.38
2022-11-15T09:28:59.604Z,4.75
2022-11-15T09:31:26.891Z,4.50
2022-11-15T09:33:54.061Z,4.55
2022-11-15T09:36:20.865Z,4.40
2022-11-15T09:38:47.780Z,5.90
2022-11-15T09:41:14.543Z,4.40
2022-11-15T09:44:03.357Z,3.40
2022-11-15T09:47:04.530Z,3.22
2022-11-15T09:49:32.236Z,3.60
2022-11-15T09:51:59.792Z,3.50
2022-11-15T09:54:52.798Z,3.25
2022-11-15T09:57:34.196Z,3.38
2022-11-15T10:00:44.710Z,3.22
2022-11-15T10:03:10.708Z,3.40
2022-11-15T10:05:47.007Z,3.10
2022-11-15T10:08:32.085Z,2.97
2022-11-15T10:11:38.183Z,2.80
2022-11-15T10:14:20.859Z,2.92
2022-11-15T10:17:22.972Z,3.10
2022-11-15T10:19:52.782Z,3.08
2022-11-15T10:22:27.064Z,3.00
2022-11-15T10:25:17.424Z,2.80
2022-11-15T10:27:47.972Z,2.83
2022-11-15T10:30:18.134Z,3.15
2022-11-15T10:32:47.262Z,2.40
2022-11-15T10:35:21.925Z,2.22
2022-11-15T10:37:49.117Z,2.67
2022-11-15T10:40:20.747Z,2.67
2022-11-15T10:42:48.560Z,2.30
2022-11-15T10:45:27.962Z,2.70
2022-11-15T10:47:55.035Z,2.70
2022-11-15T10:50:33.040Z,2.50
2022-11-15T10:53:03.781Z,3.10
2022-11-15T10:55:35.873Z,2.92
2022-11-15T10:58:26.427Z,2.75
2022-11-15T11:00:54.911Z,2.20
2022-11-15T11:03:36.768Z,2.40
2022-11-15T11:06:11.006Z,2.10
2022-11-15T11:08:38.449Z,2.60
2022-11-15T11:11:06.993Z,2.40
2022-11-15T11:13:39.313Z,2.67
2022-11-15T11:16:15.396Z,2.05
2022-11-15T11:19:19.828Z,2.35
2022-11-15T11:22:19.652Z,2.35
2022-11-15T11:24:52.213Z,2.05
2022-11-15T11:27:32.035Z,2.40
2022-11-15T11:30:21.593Z,2.15
2022-11-15T11:33:17.820Z,2.70
2022-11-15T11:36:02.590Z,2.42
2022-11-15T11:38:43.929Z,2.20
2022-11-15T11:41:13.504Z,2.15
2022-11-15T11:44:08.413Z,1.98
2022-11-15T11:47:02.894Z,2.50
2022-11-15T11:49:37.023Z,2.28
2022-11-15T11:52:16.043Z,2.22
2022-11-15T11:55:25.845Z,2.53
2022-11-15T11:58:10.982Z,3.08
2022-11-15T12:00:44.175Z,2.30
2022-11-15T12:03:21.652Z,2.55
2022-11-15T12:05:54.874Z,2.30
2022-11-15T12:08:53.452Z,2.40
2022-11-15T12:11:53.645Z,2.67
2022-11-15T12:14:28.736Z,2.30
2022-11-15T12:16:55.633Z,2.58
2022-11-15T12:19:22.508Z,2.58
2022-11-15T12:22:24.758Z,2.13
2022-11-15T12:24:59.935Z,2.63
2022-11-15T12:27:41.313Z,2.08
2022-11-15T12:30:20.501Z,2.50
2022-11-15T12:32:57.629Z,2.42
2022-11-15T12:35:38.637Z,2.33
2022-11-15T12:38:06.376Z,2.20
2022-11-15T12:40:36.364Z,2.20
2022-11-15T12:43:15.506Z,2.05
2022-11-15T12:45:45.028Z,2.10
2022-11-15T12:48:17.947Z,2.30
2022-11-15T12:50:55.163Z,2.20
2022-11-15T12:53:28.453Z,2.30
2022-11-15T12:56:20.904Z,2.40
2022-11-15T12:58:59.489Z,1.98
2022-11-15T13:01:35.367Z,2.40
2022-11-15T13:04:22.837Z,2.70
2022-11-15T13:06:51.175Z,2.20
2022-11-15T13:09:33.337Z,2.45
2022-11-15T13:12:04.797Z,2.20
2022-11-15T13:14:45.771Z,1.95
2022-11-15T13:17:26.643Z,2.17
2022-11-15T13:20:01.852Z,2.25
2022-11-15T13:23:00.069Z,2.03
2022-11-15T13:25:45.550Z,1.83
2022-11-15T13:28:15.118Z,2.08
2022-11-15T13:30:55.155Z,2.00
2022-11-15T13:33:36.377Z,2.00
2022-11-15T13:36:14.466Z,2.05
2022-11-15T13:38:42.555Z,2.40
2022-11-15T13:41:22.273Z,1.98
2022-11-15T13:43:51.291Z,1.60
2022-11-15T13:46:19.240Z,2.15
2022-11-15T13:48:48.060Z,2.08
2022-11-15T13:51:23.148Z,1.92
2022-11-15T13:53:59.533Z,1.80
2022-11-15T13:56:28.415Z,2.08
2022-11-15T13:58:55.904Z,2.33
2022-11-15T14:01:23.457Z,1.80
2022-11-15T14:03:59.722Z,2.00
2022-11-15T14:06:30.009Z,2.08
2022-11-15T14:09:10.938Z,2.40
2022-11-15T14:11:38.694Z,2.50
2022-11-15T14:14:08.470Z,2.42
2022-11-15T14:16:41.305Z,1.95
2022-11-15T14:19:12.518Z,2.33
2022-11-15T14:22:29.364Z,2.10
2022-11-15T14:25:25.291Z,2.20
2022-11-15T14:28:17.289Z,2.42
2022-11-15T14:30:48.194Z,2.00
2022-11-15T14:33:31.734Z,2.05
2022-11-15T14:36:04.186Z,2.35
2022-11-15T14:40:58.654Z,2.15
2022-11-15T14:43:25.745Z,1.88
2022-11-15T14:45:52.531Z,2.58
2022-11-15T14:48:19.370Z,2.40
2022-11-15T14:50:46.311Z,2.25
2022-11-15T14:53:15.915Z,2.67
2022-11-15T14:55:43.050Z,2.53
2022-11-15T14:58:10.473Z,2.55
2022-11-15T15:00:39.515Z,2.13
2022-11-15T15:03:07.546Z,2.88
2022-11-15T15:05:43.271Z,2.10
2022-11-15T15:08:16.996Z,2.40
2022-11-15T15:10:45.608Z,3.08
2022-11-15T15:13:19.348Z,3.05
2022-11-15T15:15:46.599Z,3.38
2022-11-15T15:18:13.954Z,3.10
2022-11-15T15:20:42.783Z,3.45
2022-11-15T15:23:19.193Z,3.20
2022-11-15T15:25:47.502Z,3.38
2022-11-15T15:28:14.788Z,3.05
2022-11-15T15:30:41.593Z,3.38
2022-11-15T15:33:08.390Z,3.20
2022-11-15T15:35:36.220Z,3.38
2022-11-15T15:38:04.150Z,3.42
2022-11-15T15:41:28.719Z,3.20
2022-11-15T15:43:55.509Z,3.03
2022-11-15T15:46:22.361Z,3.05
2022-11-15T15:48:49.303Z,3.30
2022-11-15T15:51:20.481Z,3.28
2022-11-15T15:53:48.932Z,3.47
2022-11-15T15:56:24.705Z,3.35
2022-11-15T15:59:08.693Z,3.28
2022-11-15T16:01:45.097Z,3.03
2022-11-15T16:04:13.948Z,3.25
2022-11-15T16:06:45.179Z,3.72
2022-11-15T16:09:17.025Z,3.45
2022-11-15T16:11:46.848Z,3.58
2022-11-15T16:14:14.061Z,3.75
2022-11-15T16:16:42.273Z,3.60
2022-11-15T16:19:11.438Z,3.83
2022-11-15T16:21:38.264Z,4.28
2022-11-15T16:24:05.544Z,3.60
2022-11-15T16:26:34.656Z,3.55
2022-11-15T16:29:01.398Z,3.92
2022-11-15T16:31:28.208Z,3.88
2022-11-15T16:33:54.946Z,3.38
2022-11-15T16:36:25.660Z,4.32
2022-11-15T16:38:59.066Z,4.45
2022-11-15T16:41:26.538Z,4.18
2022-11-15T16:43:53.498Z,3.92
2022-11-15T16:46:26.064Z,3.88
2022-11-15T16:53:05.649Z,4.13
2022-11-15T16:55:32.617Z,3.80
2022-11-15T16:57:59.498Z,3.75
2022-11-15T17:00:26.326Z,4.20
2022-11-15T17:02:54.041Z,4.85
2022-11-15T17:05:22.842Z,4.40
2022-11-15T17:07:52.421Z,4.28
2022-11-15T17:10:19.284Z,4.30
2022-11-15T17:12:46.141Z,4.45
2022-11-15T17:15:14.016Z,4.57
2022-11-15T17:17:41.405Z,4.63
2022-11-15T17:20:16.660Z,5.07
2022-11-15T17:22:43.764Z,4.43
2022-11-15T17:25:10.921Z,4.78
2022-11-15T17:27:37.875Z,5.30
2022-11-15T17:30:05.762Z,4.57
2022-11-15T17:32:32.631Z,5.03
2022-11-15T17:34:59.386Z,4.93
2022-11-15T17:37:26.169Z,4.95
2022-11-15T17:39:52.998Z,5.13
2022-11-15T17:42:19.873Z,5.55
2022-11-15T17:44:46.709Z,5.13
2022-11-15T17:47:13.546Z,4.88
2022-11-15T17:49:41.068Z,5.25
2022-11-15T17:52:08.257Z,5.13
2022-11-15T17:54:35.337Z,5.28
2022-11-15T17:57:02.116Z,4.88
2022-11-15T17:59:28.951Z,5.85
2022-11-15T18:01:55.739Z,5.30
2022-11-15T18:04:28.157Z,5.63
2022-11-15T18:09:24.784Z,6.65
2022-11-15T18:11:51.835Z,5.95
2022-11-15T18:14:19.300Z,6.32
2022-11-15T18:16:46.533Z,5.38
2022-11-15T18:19:13.837Z,5.38
2022-11-15T18:21:58.982Z,5.93
2022-11-15T18:24:36.791Z,5.50
2022-11-15T18:27:05.858Z,5.47
2022-11-15T18:29:34.602Z,5.65
2022-11-15T18:32:05.021Z,6.07
2022-11-15T18:34:32.294Z,5.80
2022-11-15T18:37:00.370Z,6.25
2022-11-15T18:39:27.186Z,6.22
2022-11-15T18:41:54.240Z,5.78
2022-11-15T18:44:21.047Z,5.85
2022-11-15T18:46:47.808Z,5.63
2022-11-15T18:49:16.752Z,6.30
2022-11-15T18:51:43.929Z,6.20
2022-11-15T18:54:12.994Z,5.43
2022-11-15T18:56:40.426Z,5.57
2022-11-15T18:59:08.724Z,6.57
2022-11-15T19:01:41.278Z,5.63
2022-11-15T19:06:43.857Z,6.10
2022-11-15T19:09:12.801Z,5.50
2022-11-15T19:11:40.241Z,6.35
2022-11-15T19:14:15.627Z,6.13
2022-11-15T19:16:45.161Z,5.47
2022-11-15T19:19:17.560Z,5.97
2022-11-15T19:21:44.583Z,5.53
2022-11-15T19:24:11.635Z,5.90
2022-11-15T19:26:39.306Z,5.82
2022-11-15T19:29:10.316Z,6.25
2022-11-15T19:31:37.858Z,5.60
2022-11-15T19:34:06.037Z,6.38
2022-11-15T19:36:38.229Z,6.18
2022-11-15T19:39:09.725Z,5.55
2022-11-15T19:41:39.064Z,5.68
2022-11-15T19:44:06.898Z,5.97
2022-11-15T19:46:34.127Z,5.53
2022-11-15T19:49:01.189Z,5.43
2022-11-15T19:51:30.860Z,5.50
2022-11-15T19:54:01.417Z,5.70
2022-11-15T19:56:28.277Z,5.15
2022-11-15T19:58:56.887Z,5.45
2022-11-15T20:01:29.261Z,6.05
2022-11-15T20:03:58.569Z,5.00
2022-11-15T20:06:31.467Z,5.80
2022-11-15T20:08:59.001Z,5.30
2022-11-15T20:11:26.312Z,5.13
2022-11-15T20:13:58.973Z,4.72
2022-11-15T20:16:26.276Z,4.65
2022-11-15T20:18:53.379Z,4.75
2022-11-15T20:21:21.623Z,4.75
2022-11-15T20:23:50.869Z,4.88
2022-11-15T20:26:19.358Z,4.28
2022-11-15T20:28:48.079Z,3.72
2022-11-15T20:31:15.852Z,3.85
2022-11-15T20:33:42.724Z,4.32
2022-11-15T20:36:15.405Z,4.22
2022-11-15T20:38:43.498Z,4.35
2022-11-15T20:41:14.052Z,4.20
2022-11-15T20:43:43.406Z,4.30
2022-11-15T20:46:11.867Z,4.00
2022-11-15T20:48:38.940Z,4.20
2022-11-15T20:51:15.459Z,4.00
2022-11-15T20:53:43.574Z,4.20
2022-11-15T20:56:13.173Z,4.60
2022-11-15T20:58:40.599Z,4.88
2022-11-15T21:01:09.236Z,4.40
2022-11-15T21:03:36.076Z,4.53
2022-11-15T21:06:03.549Z,4.47
2022-11-15T21:08:53.594Z,4.07
2022-11-15T21:11:39.715Z,4.63
2022-11-15T21:14:09.477Z,4.45
2022-11-15T21:16:37.222Z,4.45
2022-11-15T21:19:04.159Z,4.90
2022-11-15T21:21:31.111Z,5.03
2022-11-15T21:23:57.932Z,4.88
2022-11-15T21:26:26.799Z,4.95
2022-11-15T21:28:53.561Z,4.90
2022-11-15T21:31:20.426Z,5.47
2022-11-15T21:33:47.189Z,5.13
2022-11-15T21:36:14.028Z,4.75
2022-11-15T21:38:41.051Z,4.97
2022-11-15T21:41:07.999Z,5.47
2022-11-15T21:43:34.833Z,5.10
2022-11-15T21:46:04.087Z,5.53
2022-11-15T21:48:34.607Z,5.90
2022-11-15T21:51:07.423Z,5.65
2022-11-15T21:53:34.683Z,5.30
2022-11-15T21:56:02.342Z,5.78
2022-11-15T21:58:29.538Z,5.63
2022-11-15T22:01:15.359Z,5.20
2022-11-15T22:03:42.867Z,5.80
2022-11-15T22:06:16.109Z,5.75
2022-11-15T22:08:45.807Z,5.47
2022-11-15T22:11:13.276Z,5.60
2022-11-15T22:13:40.343Z,5.40
2022-11-15T22:16:08.250Z,5.30
2022-11-15T22:18:35.739Z,5.50
2022-11-15T22:21:06.567Z,5.20
2022-11-15T22:23:34.177Z,5.20
2022-11-15T22:26:01.128Z,5.50
2022-11-15T22:28:28.632Z,5.10
2022-11-15T22:30:56.062Z,5.72
2022-11-15T22:33:28.109Z,5.22
2022-11-15T22:35:55.970Z,5.65
2022-11-15T22:38:23.345Z,5.20
2022-11-15T22:40:50.569Z,5.05
2022-11-15T22:43:21.898Z,5.60
2022-11-15T22:45:51.833Z,6.10
2022-11-15T22:48:21.405Z,7.28
2022-11-15T22:50:48.386Z,6.30
2022-11-15T22:53:15.227Z,5.50
2022-11-15T22:55:42.609Z,6.10
2022-11-15T22:58:09.890Z,5.57
2022-11-15T23:00:37.162Z,5.93
2022-11-15T23:03:04.274Z,5.63
2022-11-15T23:05:31.970Z,5.45
2022-11-15T23:07:58.786Z,5.20
2022-11-15T23:10:44.069Z,5.15
2022-11-15T23:13:18.857Z,5.95
2022-11-15T23:16:09.142Z,5.20
2022-11-15T23:18:43.477Z,5.28
2022-11-15T23:21:40.505Z,5.20
2022-11-15T23:24:10.232Z,5.55
2022-11-15T23:26:38.370Z,5.60
2022-11-15T23:29:06.754Z,4.97
2022-11-15T23:32:01.214Z,5.53
2022-11-15T23:34:33.358Z,5.38
2022-11-15T23:37:00.491Z,5.22
2022-11-15T23:39:27.488Z,5.50
2022-11-15T23:41:54.599Z,5.78
2022-11-15T23:44:21.750Z,5.90
2022-11-15T23:46:48.700Z,6.10
2022-11-15T23:49:15.601Z,5.68
2022-11-15T23:51:42.583Z,6.70
2022-11-15T23:54:09.632Z,6.10
2022-11-15T23:56:36.709Z,6.82
2022-11-15T23:59:04.536Z,7.38
